VYA605 PANC-BGGH
Flight info
| Callsign | VYA605 |
|---|---|
| Flight time | 5h 4m |
| Altitude | 37000 |
| Route | NOEND DCT FOXSO DCT RDFLG DCT EAA DCT 66N40 DCT YEV DCT 70N30 DCT YSY DCT 73N20 DCT YRB/N0466F390 DCT N7490 DCT YIO DCT YCY DCT 7067N/M080F390 DCT DARUB DCT 6555N DCT SUBUD DCT GETDA |
| Aircraft | CL60/M-SADE3FGHIJ3J4J7P2RWXY/HB1D1 |
Departure
| Time | 2026-04-25 16:25 |
|---|---|
| Airport | Ted Stevens Anchorage International Airport (PANC) |
Arrival
| Time | 2026-04-25 21:29 |
|---|---|
| Airport | Nuuk International Airport (BGGH) |
| Time | Latitude | Longitude | Altitude | Speed | Heading |
|---|---|---|---|---|---|
| 2026-04-25 16:05 | 61.16489 | -149.98607 | 162 ft | 0 kts | 13° |
| 2026-04-25 16:21 | 61.16515 | -149.98592 | 162 ft | 5 kts | 31° |
| 2026-04-25 16:21 | 61.16549 | -149.98511 | 162 ft | 13 kts | 41° |
| 2026-04-25 16:22 | 61.16648 | -149.98547 | 162 ft | 16 kts | 337° |
| 2026-04-25 16:22 | 61.16761 | -149.98633 | 162 ft | 18 kts | 336° |
| 2026-04-25 16:22 | 61.16786 | -149.98866 | 162 ft | 28 kts | 271° |
| 2026-04-25 16:22 | 61.16786 | -149.99292 | 162 ft | 29 kts | 270° |
| 2026-04-25 16:23 | 61.16785 | -149.99725 | 162 ft | 30 kts | 270° |
| 2026-04-25 16:23 | 61.16785 | -150.00171 | 162 ft | 31 kts | 270° |
| 2026-04-25 16:23 | 61.16790 | -150.00619 | 162 ft | 30 kts | 278° |
| 2026-04-25 16:23 | 61.16861 | -150.00818 | 162 ft | 12 kts | 0° |
| 2026-04-25 16:24 | 61.16953 | -150.00792 | 162 ft | 14 kts | 44° |
| 2026-04-25 16:24 | 61.16978 | -150.00525 | 162 ft | 39 kts | 90° |
| 2026-04-25 16:24 | 61.16978 | -149.99487 | 162 ft | 114 kts | 89° |
| 2026-04-25 16:24 | 61.16987 | -149.97502 | 270 ft | 163 kts | 89° |
| 2026-04-25 16:25 | 61.16992 | -149.95309 | 962 ft | 170 kts | 89° |
| 2026-04-25 16:25 | 61.16989 | -149.93751 | 1526 ft | 174 kts | 90° |
| 2026-04-25 16:25 | 61.16973 | -149.90364 | 2485 ft | 202 kts | 90° |
| 2026-04-25 16:25 | 61.16960 | -149.87375 | 3008 ft | 231 kts | 90° |
| 2026-04-25 16:26 | 61.16953 | -149.84174 | 3944 ft | 242 kts | 90° |
| 2026-04-25 16:26 | 61.16948 | -149.80780 | 4933 ft | 252 kts | 92° |
| 2026-04-25 16:26 | 61.16879 | -149.77190 | 6044 ft | 257 kts | 94° |
| 2026-04-25 16:26 | 61.16793 | -149.73505 | 7141 ft | 262 kts | 94° |
| 2026-04-25 16:27 | 61.16706 | -149.69756 | 8167 ft | 269 kts | 94° |
| 2026-04-25 16:27 | 61.16614 | -149.65830 | 9169 ft | 276 kts | 95° |
| 2026-04-25 16:27 | 61.16519 | -149.61842 | 10155 ft | 282 kts | 95° |
| 2026-04-25 16:27 | 61.16415 | -149.57616 | 10475 ft | 312 kts | 95° |
| 2026-04-25 16:28 | 61.16299 | -149.52922 | 10878 ft | 336 kts | 95° |
| 2026-04-25 16:28 | 61.16177 | -149.47966 | 11624 ft | 347 kts | 95° |
| 2026-04-25 16:28 | 61.16054 | -149.42984 | 12444 ft | 354 kts | 95° |
| 2026-04-25 16:28 | 61.15925 | -149.37846 | 13266 ft | 361 kts | 95° |
| 2026-04-25 16:29 | 61.15794 | -149.32710 | 14075 ft | 366 kts | 96° |
| 2026-04-25 16:29 | 61.15657 | -149.27443 | 14831 ft | 371 kts | 96° |
| 2026-04-25 16:29 | 61.15517 | -149.22111 | 15662 ft | 374 kts | 96° |
| 2026-04-25 16:29 | 61.15374 | -149.16731 | 16464 ft | 378 kts | 96° |
| 2026-04-25 16:30 | 61.15226 | -149.11270 | 17216 ft | 381 kts | 96° |
| 2026-04-25 16:30 | 61.15076 | -149.05786 | 17944 ft | 385 kts | 96° |
| 2026-04-25 16:30 | 61.14923 | -149.00285 | 18642 ft | 388 kts | 96° |
| 2026-04-25 16:30 | 61.14766 | -148.94733 | 19319 ft | 392 kts | 96° |
| 2026-04-25 16:31 | 61.14602 | -148.89017 | 19902 ft | 397 kts | 96° |
| 2026-04-25 16:31 | 61.14436 | -148.83299 | 20486 ft | 401 kts | 96° |
| 2026-04-25 16:31 | 61.14265 | -148.77530 | 21045 ft | 406 kts | 96° |
| 2026-04-25 16:31 | 61.14090 | -148.71669 | 21592 ft | 410 kts | 96° |
| 2026-04-25 16:32 | 61.13913 | -148.65817 | 22134 ft | 414 kts | 96° |
| 2026-04-25 16:32 | 61.13731 | -148.59821 | 22660 ft | 418 kts | 95° |
| 2026-04-25 16:32 | 61.13875 | -148.53806 | 23160 ft | 426 kts | 82° |
| 2026-04-25 16:32 | 61.14727 | -148.47931 | 23628 ft | 434 kts | 67° |
| 2026-04-25 16:33 | 61.16323 | -148.42549 | 24077 ft | 441 kts | 51° |
| 2026-04-25 16:33 | 61.18562 | -148.38178 | 24494 ft | 446 kts | 38° |
| 2026-04-25 16:33 | 61.21018 | -148.34224 | 24878 ft | 451 kts | 38° |
| 2026-04-25 16:33 | 61.23500 | -148.30209 | 25293 ft | 454 kts | 39° |
| 2026-04-25 16:34 | 61.25992 | -148.26166 | 25691 ft | 457 kts | 39° |
| 2026-04-25 16:34 | 61.28504 | -148.22081 | 26066 ft | 460 kts | 39° |
| 2026-04-25 16:34 | 61.31027 | -148.17970 | 26432 ft | 463 kts | 39° |
| 2026-04-25 16:34 | 61.33555 | -148.13841 | 26809 ft | 465 kts | 39° |
| 2026-04-25 16:35 | 61.36119 | -148.09647 | 27133 ft | 468 kts | 39° |
| 2026-04-25 16:35 | 61.38697 | -148.05417 | 27444 ft | 471 kts | 39° |
| 2026-04-25 16:35 | 61.41278 | -148.01173 | 27755 ft | 474 kts | 39° |
| 2026-04-25 16:35 | 61.43865 | -147.96913 | 28070 ft | 476 kts | 39° |
| 2026-04-25 16:36 | 61.46466 | -147.92618 | 28345 ft | 479 kts | 39° |
| 2026-04-25 16:36 | 61.51759 | -147.83850 | 28864 ft | 485 kts | 39° |
| 2026-04-25 16:36 | 61.54398 | -147.79463 | 29137 ft | 487 kts | 39° |
| 2026-04-25 16:37 | 61.57057 | -147.75034 | 29381 ft | 489 kts | 39° |
| 2026-04-25 16:37 | 61.59728 | -147.70573 | 29613 ft | 491 kts | 39° |
| 2026-04-25 16:37 | 61.62423 | -147.66063 | 29821 ft | 493 kts | 39° |
| 2026-04-25 16:37 | 61.65076 | -147.61612 | 29996 ft | 496 kts | 39° |
| 2026-04-25 16:38 | 61.67774 | -147.57077 | 30209 ft | 497 kts | 39° |
| 2026-04-25 16:38 | 61.70492 | -147.52498 | 30408 ft | 499 kts | 40° |
| 2026-04-25 16:38 | 61.73224 | -147.47882 | 30585 ft | 501 kts | 40° |
| 2026-04-25 16:38 | 61.75931 | -147.43298 | 30733 ft | 503 kts | 40° |
| 2026-04-25 16:39 | 61.78653 | -147.38680 | 30883 ft | 504 kts | 40° |
| 2026-04-25 16:39 | 61.81419 | -147.33974 | 31025 ft | 506 kts | 41° |
| 2026-04-25 16:39 | 61.84029 | -147.29524 | 31183 ft | 506 kts | 41° |
| 2026-04-25 16:39 | 61.86759 | -147.24860 | 31320 ft | 508 kts | 41° |
| 2026-04-25 16:40 | 61.89509 | -147.20149 | 31437 ft | 509 kts | 41° |
| 2026-04-25 16:40 | 61.92252 | -147.15439 | 31542 ft | 511 kts | 41° |
| 2026-04-25 16:40 | 61.95045 | -147.10631 | 31670 ft | 511 kts | 41° |
| 2026-04-25 16:40 | 61.97804 | -147.05870 | 31780 ft | 513 kts | 41° |
| 2026-04-25 16:41 | 62.00581 | -147.01068 | 31914 ft | 513 kts | 41° |
| 2026-04-25 16:41 | 62.08911 | -146.86589 | 32267 ft | 515 kts | 41° |
| 2026-04-25 16:42 | 62.11668 | -146.81776 | 32408 ft | 515 kts | 41° |
| 2026-04-25 16:42 | 62.14348 | -146.77086 | 32540 ft | 514 kts | 41° |
| 2026-04-25 16:42 | 62.17111 | -146.72237 | 32651 ft | 514 kts | 41° |
| 2026-04-25 16:42 | 62.19875 | -146.67374 | 32766 ft | 514 kts | 41° |
| 2026-04-25 16:43 | 62.25425 | -146.57520 | 32956 ft | 515 kts | 43° |
| 2026-04-25 16:43 | 62.30767 | -146.47308 | 33129 ft | 515 kts | 44° |
| 2026-04-25 16:44 | 62.36109 | -146.37016 | 33291 ft | 516 kts | 44° |
| 2026-04-25 16:44 | 62.41398 | -146.26776 | 33457 ft | 517 kts | 45° |
| 2026-04-25 16:45 | 62.46748 | -146.16370 | 33639 ft | 517 kts | 45° |
| 2026-04-25 16:45 | 62.52080 | -146.05946 | 33782 ft | 518 kts | 45° |
| 2026-04-25 16:46 | 62.57433 | -145.95432 | 33932 ft | 519 kts | 45° |
| 2026-04-25 16:46 | 62.61928 | -145.86559 | 34080 ft | 520 kts | 46° |
| 2026-04-25 16:47 | 62.65455 | -145.79572 | 34200 ft | 520 kts | 46° |
| 2026-04-25 16:47 | 62.68124 | -145.74268 | 34284 ft | 520 kts | 46° |
| 2026-04-25 16:47 | 62.73470 | -145.63603 | 34453 ft | 521 kts | 46° |
| 2026-04-25 16:48 | 62.76123 | -145.58292 | 34568 ft | 521 kts | 46° |
| 2026-04-25 16:48 | 62.78798 | -145.52924 | 34680 ft | 520 kts | 46° |
| 2026-04-25 16:48 | 62.81444 | -145.47598 | 34786 ft | 520 kts | 46° |
| 2026-04-25 16:48 | 62.84123 | -145.42192 | 34884 ft | 520 kts | 46° |
| 2026-04-25 16:49 | 62.86790 | -145.36800 | 35031 ft | 519 kts | 45° |
| 2026-04-25 16:49 | 62.89415 | -145.31476 | 35146 ft | 518 kts | 47° |
| 2026-04-25 16:49 | 62.92009 | -145.26201 | 35264 ft | 517 kts | 46° |
| 2026-04-25 16:49 | 62.94650 | -145.20816 | 35346 ft | 517 kts | 47° |
| 2026-04-25 16:50 | 62.97295 | -145.15413 | 35484 ft | 516 kts | 46° |
| 2026-04-25 16:50 | 62.99900 | -145.10072 | 35611 ft | 515 kts | 47° |
| 2026-04-25 16:50 | 63.02523 | -145.04684 | 35721 ft | 515 kts | 47° |
| 2026-04-25 16:50 | 63.05169 | -144.99234 | 35808 ft | 515 kts | 46° |
| 2026-04-25 16:51 | 63.07790 | -144.93823 | 35916 ft | 515 kts | 46° |
| 2026-04-25 16:51 | 63.10397 | -144.88428 | 36024 ft | 514 kts | 46° |
| 2026-04-25 16:51 | 63.12921 | -144.83188 | 36138 ft | 514 kts | 46° |
| 2026-04-25 16:51 | 63.14605 | -144.79686 | 36186 ft | 513 kts | 46° |
| 2026-04-25 16:52 | 63.18057 | -144.72488 | 36324 ft | 512 kts | 46° |
| 2026-04-25 16:52 | 63.20637 | -144.67090 | 36373 ft | 513 kts | 46° |
| 2026-04-25 16:52 | 63.25795 | -144.56259 | 36573 ft | 512 kts | 46° |
| 2026-04-25 16:53 | 63.30980 | -144.45316 | 36687 ft | 512 kts | 46° |
| 2026-04-25 16:53 | 63.33540 | -144.39891 | 36773 ft | 512 kts | 47° |
| 2026-04-25 16:54 | 63.38429 | -144.29489 | 36894 ft | 512 kts | 47° |
| 2026-04-25 16:54 | 63.43517 | -144.18613 | 37019 ft | 513 kts | 48° |
| 2026-04-25 16:55 | 63.48649 | -144.07584 | 37114 ft | 514 kts | 47° |
| 2026-04-25 16:55 | 63.53786 | -143.96486 | 37215 ft | 515 kts | 47° |
| 2026-04-25 16:55 | 63.56371 | -143.90880 | 37048 ft | 515 kts | 47° |
| 2026-04-25 16:56 | 63.58931 | -143.85313 | 37029 ft | 517 kts | 47° |
| 2026-04-25 16:56 | 63.64124 | -143.74142 | 37019 ft | 519 kts | 47° |
| 2026-04-25 16:57 | 63.69339 | -143.62883 | 37034 ft | 518 kts | 47° |
| 2026-04-25 16:57 | 63.74565 | -143.51540 | 37047 ft | 519 kts | 47° |
| 2026-04-25 16:58 | 63.79718 | -143.40294 | 37036 ft | 520 kts | 47° |
| 2026-04-25 16:58 | 63.84913 | -143.28893 | 37036 ft | 520 kts | 48° |
| 2026-04-25 16:59 | 63.90103 | -143.17441 | 37050 ft | 523 kts | 48° |
| 2026-04-25 16:59 | 63.95311 | -143.05887 | 37058 ft | 526 kts | 48° |
| 2026-04-25 17:00 | 64.00576 | -142.94141 | 37045 ft | 529 kts | 47° |
| 2026-04-25 17:00 | 64.05808 | -142.82402 | 37053 ft | 530 kts | 47° |
| 2026-04-25 17:01 | 64.11045 | -142.70590 | 37066 ft | 531 kts | 47° |
| 2026-04-25 17:01 | 64.16260 | -142.58763 | 37045 ft | 530 kts | 47° |
| 2026-04-25 17:02 | 64.21482 | -142.46851 | 37049 ft | 530 kts | 47° |
| 2026-04-25 17:02 | 64.26704 | -142.34869 | 37032 ft | 530 kts | 48° |
| 2026-04-25 17:03 | 64.31907 | -142.22868 | 37030 ft | 528 kts | 48° |
| 2026-04-25 17:03 | 64.37082 | -142.10861 | 37050 ft | 528 kts | 48° |
| 2026-04-25 17:04 | 64.42224 | -141.98862 | 37058 ft | 528 kts | 48° |
| 2026-04-25 17:04 | 64.47370 | -141.86786 | 37053 ft | 527 kts | 48° |
| 2026-04-25 17:05 | 64.52528 | -141.74614 | 37059 ft | 527 kts | 48° |
| 2026-04-25 17:05 | 64.60207 | -141.56361 | 37045 ft | 527 kts | 48° |
| 2026-04-25 17:06 | 64.65305 | -141.44159 | 37073 ft | 527 kts | 48° |
| 2026-04-25 17:06 | 64.70412 | -141.31860 | 37073 ft | 527 kts | 49° |
| 2026-04-25 17:07 | 64.75699 | -141.20084 | 37101 ft | 529 kts | 40° |
| 2026-04-25 17:07 | 64.81920 | -141.10799 | 37115 ft | 531 kts | 26° |
| 2026-04-25 17:08 | 64.88773 | -141.04248 | 37109 ft | 531 kts | 21° |
| 2026-04-25 17:08 | 64.95658 | -140.98061 | 37122 ft | 531 kts | 21° |
| 2026-04-25 17:09 | 65.02547 | -140.91835 | 37114 ft | 532 kts | 21° |
| 2026-04-25 17:09 | 65.09484 | -140.85532 | 37070 ft | 532 kts | 20° |
| 2026-04-25 17:10 | 65.16365 | -140.79246 | 37041 ft | 531 kts | 20° |
| 2026-04-25 17:10 | 65.23262 | -140.72911 | 37020 ft | 530 kts | 21° |
| 2026-04-25 17:11 | 65.30090 | -140.66603 | 37031 ft | 529 kts | 20° |
| 2026-04-25 17:11 | 65.36954 | -140.60229 | 37022 ft | 530 kts | 20° |
| 2026-04-25 17:12 | 65.43851 | -140.53787 | 37032 ft | 529 kts | 20° |
| 2026-04-25 17:12 | 65.50688 | -140.47366 | 37022 ft | 529 kts | 21° |
| 2026-04-25 17:13 | 65.56391 | -140.41981 | 37032 ft | 529 kts | 21° |
| 2026-04-25 17:13 | 65.64210 | -140.34558 | 37020 ft | 528 kts | 21° |
| 2026-04-25 17:14 | 65.70894 | -140.28175 | 37007 ft | 528 kts | 21° |
| 2026-04-25 17:14 | 65.77654 | -140.21683 | 37007 ft | 528 kts | 21° |
| 2026-04-25 17:15 | 65.84405 | -140.15163 | 37017 ft | 527 kts | 21° |
| 2026-04-25 17:15 | 65.91092 | -140.08667 | 37017 ft | 527 kts | 21° |
| 2026-04-25 17:16 | 65.97723 | -140.01422 | 37025 ft | 526 kts | 30° |
| 2026-04-25 17:16 | 66.03511 | -139.91345 | 37032 ft | 524 kts | 43° |
| 2026-04-25 17:17 | 66.08707 | -139.78926 | 37042 ft | 524 kts | 46° |
| 2026-04-25 17:17 | 66.13702 | -139.66727 | 37046 ft | 523 kts | 46° |
| 2026-04-25 17:18 | 66.18839 | -139.54109 | 37039 ft | 523 kts | 46° |
| 2026-04-25 17:18 | 66.23988 | -139.41388 | 37038 ft | 523 kts | 46° |
| 2026-04-25 17:19 | 66.29017 | -139.28894 | 37043 ft | 523 kts | 47° |
| 2026-04-25 17:19 | 66.34148 | -139.16066 | 37063 ft | 522 kts | 47° |
| 2026-04-25 17:20 | 66.39224 | -139.03301 | 37053 ft | 522 kts | 47° |
| 2026-04-25 17:20 | 66.44315 | -138.90422 | 37052 ft | 522 kts | 46° |
| 2026-04-25 17:21 | 66.49374 | -138.77545 | 37056 ft | 522 kts | 46° |
| 2026-04-25 17:21 | 66.54417 | -138.64629 | 37063 ft | 522 kts | 46° |
| 2026-04-25 17:22 | 66.58644 | -138.53742 | 37077 ft | 522 kts | 46° |
| 2026-04-25 17:22 | 66.64516 | -138.38524 | 37076 ft | 522 kts | 46° |
| 2026-04-25 17:23 | 66.69493 | -138.25539 | 37074 ft | 522 kts | 47° |
| 2026-04-25 17:23 | 66.74488 | -138.12427 | 37094 ft | 522 kts | 47° |
| 2026-04-25 17:24 | 66.79514 | -137.99150 | 37104 ft | 522 kts | 47° |
| 2026-04-25 17:24 | 66.84528 | -137.85820 | 37094 ft | 522 kts | 47° |
| 2026-04-25 17:25 | 66.89509 | -137.72498 | 37107 ft | 522 kts | 47° |
| 2026-04-25 17:25 | 66.94464 | -137.59157 | 37101 ft | 522 kts | 47° |
| 2026-04-25 17:26 | 66.99396 | -137.45796 | 37110 ft | 522 kts | 47° |
| 2026-04-25 17:26 | 67.04204 | -137.32690 | 37120 ft | 521 kts | 48° |
| 2026-04-25 17:27 | 67.09106 | -137.19243 | 37128 ft | 522 kts | 48° |
| 2026-04-25 17:27 | 67.12888 | -137.08809 | 37120 ft | 521 kts | 48° |
| 2026-04-25 17:28 | 67.18780 | -136.92453 | 37105 ft | 522 kts | 47° |
| 2026-04-25 17:28 | 67.23692 | -136.78720 | 37118 ft | 522 kts | 47° |
| 2026-04-25 17:29 | 67.28609 | -136.64885 | 37067 ft | 522 kts | 47° |
| 2026-04-25 17:29 | 67.33460 | -136.51144 | 37043 ft | 522 kts | 47° |
| 2026-04-25 17:30 | 67.38313 | -136.37311 | 37037 ft | 522 kts | 47° |
| 2026-04-25 17:30 | 67.42999 | -136.23865 | 37036 ft | 521 kts | 48° |
| 2026-04-25 17:31 | 67.47781 | -136.10059 | 37060 ft | 521 kts | 48° |
| 2026-04-25 17:31 | 67.52625 | -135.95981 | 37104 ft | 521 kts | 48° |
| 2026-04-25 17:32 | 67.57422 | -135.81944 | 37103 ft | 520 kts | 48° |
| 2026-04-25 17:32 | 67.62208 | -135.67851 | 37110 ft | 520 kts | 48° |
| 2026-04-25 17:33 | 67.67028 | -135.53558 | 37134 ft | 519 kts | 48° |
| 2026-04-25 17:33 | 67.71825 | -135.39244 | 37156 ft | 519 kts | 47° |
| 2026-04-25 17:34 | 67.76479 | -135.25259 | 37167 ft | 519 kts | 49° |
| 2026-04-25 17:34 | 67.81235 | -135.10873 | 37158 ft | 520 kts | 48° |
| 2026-04-25 17:35 | 67.85980 | -134.96425 | 37175 ft | 520 kts | 48° |
| 2026-04-25 17:35 | 67.90695 | -134.81972 | 37180 ft | 521 kts | 48° |
| 2026-04-25 17:36 | 67.95431 | -134.67354 | 37186 ft | 521 kts | 48° |
| 2026-04-25 17:36 | 68.00137 | -134.52728 | 37197 ft | 521 kts | 48° |
| 2026-04-25 17:37 | 68.04813 | -134.38098 | 37188 ft | 520 kts | 48° |
| 2026-04-25 17:37 | 68.09435 | -134.23537 | 37160 ft | 520 kts | 49° |
| 2026-04-25 17:38 | 68.13100 | -134.11922 | 37190 ft | 520 kts | 49° |
| 2026-04-25 17:38 | 68.18508 | -133.94664 | 37174 ft | 520 kts | 49° |
| 2026-04-25 17:39 | 68.23116 | -133.79851 | 37176 ft | 519 kts | 49° |
| 2026-04-25 17:39 | 68.27731 | -133.64908 | 37199 ft | 519 kts | 48° |
| 2026-04-25 17:40 | 68.32809 | -133.51175 | 37175 ft | 515 kts | 35° |
| 2026-04-25 17:40 | 68.38578 | -133.40002 | 37170 ft | 514 kts | 32° |
| 2026-04-25 17:41 | 68.44255 | -133.29095 | 37186 ft | 514 kts | 32° |
| 2026-04-25 17:41 | 68.50055 | -133.17879 | 37172 ft | 513 kts | 32° |
| 2026-04-25 17:42 | 68.55823 | -133.06651 | 37165 ft | 513 kts | 32° |
| 2026-04-25 17:42 | 68.61507 | -132.95514 | 37170 ft | 513 kts | 32° |
| 2026-04-25 17:43 | 68.67298 | -132.84096 | 37181 ft | 512 kts | 32° |
| 2026-04-25 17:43 | 68.72990 | -132.72797 | 37163 ft | 512 kts | 32° |
| 2026-04-25 17:44 | 68.78753 | -132.61285 | 37171 ft | 511 kts | 32° |
| 2026-04-25 17:44 | 68.84497 | -132.49734 | 37204 ft | 511 kts | 32° |
| 2026-04-25 17:45 | 68.89215 | -132.40190 | 37194 ft | 510 kts | 32° |
| 2026-04-25 17:45 | 68.95921 | -132.26533 | 37213 ft | 510 kts | 33° |
| 2026-04-25 17:46 | 69.01627 | -132.14831 | 37220 ft | 510 kts | 33° |
| 2026-04-25 17:46 | 69.07285 | -132.03148 | 37214 ft | 509 kts | 33° |
| 2026-04-25 17:47 | 69.12972 | -131.91332 | 37234 ft | 508 kts | 32° |
| 2026-04-25 17:47 | 69.18637 | -131.79480 | 37215 ft | 509 kts | 32° |
| 2026-04-25 17:48 | 69.27143 | -131.61536 | 37210 ft | 508 kts | 32° |
| 2026-04-25 17:49 | 69.32776 | -131.49551 | 37218 ft | 509 kts | 32° |
| 2026-04-25 17:49 | 69.38391 | -131.37527 | 37220 ft | 508 kts | 32° |
| 2026-04-25 17:50 | 69.43963 | -131.25514 | 37247 ft | 507 kts | 33° |
| 2026-04-25 17:50 | 69.49596 | -131.13290 | 37238 ft | 508 kts | 33° |
| 2026-04-25 17:51 | 69.55174 | -131.01100 | 37245 ft | 507 kts | 33° |
| 2026-04-25 17:51 | 69.60761 | -130.88808 | 37244 ft | 507 kts | 33° |
| 2026-04-25 17:52 | 69.66303 | -130.76533 | 37250 ft | 506 kts | 33° |
| 2026-04-25 17:52 | 69.71891 | -130.64073 | 37261 ft | 506 kts | 33° |
| 2026-04-25 17:53 | 69.77434 | -130.51627 | 37282 ft | 505 kts | 33° |
| 2026-04-25 17:53 | 69.83015 | -130.39008 | 37259 ft | 505 kts | 33° |
| 2026-04-25 17:54 | 69.88509 | -130.26502 | 37285 ft | 505 kts | 34° |
| 2026-04-25 17:54 | 69.94006 | -130.13901 | 37270 ft | 505 kts | 34° |
| 2026-04-25 17:55 | 69.99522 | -130.01178 | 37308 ft | 504 kts | 33° |
| 2026-04-25 17:55 | 70.05164 | -129.89267 | 37316 ft | 501 kts | 30° |
| 2026-04-25 17:56 | 70.10844 | -129.77435 | 37339 ft | 500 kts | 30° |
| 2026-04-25 17:56 | 70.16526 | -129.65509 | 37320 ft | 501 kts | 31° |
| 2026-04-25 17:57 | 70.22166 | -129.53584 | 37299 ft | 501 kts | 31° |
| 2026-04-25 17:57 | 70.27808 | -129.41573 | 37306 ft | 501 kts | 31° |
| 2026-04-25 17:58 | 70.33430 | -129.29517 | 37325 ft | 501 kts | 31° |
| 2026-04-25 17:58 | 70.39069 | -129.17339 | 37320 ft | 500 kts | 32° |
| 2026-04-25 17:58 | 70.41893 | -129.11206 | 37446 ft | 501 kts | 31° |
| 2026-04-25 17:59 | 70.44703 | -129.05086 | 37337 ft | 501 kts | 32° |
| 2026-04-25 17:59 | 70.50338 | -128.92740 | 37343 ft | 498 kts | 32° |
| 2026-04-25 18:00 | 70.55923 | -128.80420 | 37326 ft | 498 kts | 32° |
| 2026-04-25 18:00 | 70.58700 | -128.74257 | 37472 ft | 495 kts | 31° |
| 2026-04-25 18:00 | 70.61423 | -128.68196 | 37515 ft | 495 kts | 32° |
| 2026-04-25 18:00 | 70.64211 | -128.61972 | 37408 ft | 497 kts | 32° |
| 2026-04-25 18:01 | 70.66994 | -128.55734 | 37324 ft | 494 kts | 32° |
| 2026-04-25 18:01 | 70.72431 | -128.43477 | 37287 ft | 487 kts | 31° |
| 2026-04-25 18:02 | 70.77816 | -128.31261 | 37261 ft | 486 kts | 32° |
| 2026-04-25 18:02 | 70.83229 | -128.18896 | 37371 ft | 486 kts | 32° |
| 2026-04-25 18:03 | 70.88618 | -128.06499 | 37578 ft | 485 kts | 33° |
| 2026-04-25 18:03 | 70.93993 | -127.94050 | 37736 ft | 485 kts | 33° |
| 2026-04-25 18:04 | 70.99378 | -127.81486 | 37875 ft | 485 kts | 33° |
| 2026-04-25 18:04 | 71.04777 | -127.68802 | 38035 ft | 484 kts | 33° |
| 2026-04-25 18:05 | 71.10101 | -127.56204 | 38172 ft | 484 kts | 33° |
| 2026-04-25 18:05 | 71.15419 | -127.43532 | 38302 ft | 484 kts | 33° |
| 2026-04-25 18:06 | 71.20703 | -127.30852 | 38426 ft | 484 kts | 34° |
| 2026-04-25 18:06 | 71.26011 | -127.18024 | 38519 ft | 484 kts | 35° |
| 2026-04-25 18:07 | 71.31285 | -127.05188 | 38627 ft | 484 kts | 35° |
| 2026-04-25 18:07 | 71.36556 | -126.92265 | 38756 ft | 484 kts | 35° |
| 2026-04-25 18:08 | 71.41793 | -126.79333 | 38854 ft | 484 kts | 35° |
| 2026-04-25 18:08 | 71.47065 | -126.66225 | 38961 ft | 483 kts | 35° |
| 2026-04-25 18:09 | 71.52329 | -126.53041 | 39043 ft | 484 kts | 35° |
| 2026-04-25 18:09 | 71.57590 | -126.39768 | 39125 ft | 485 kts | 35° |
| 2026-04-25 18:10 | 71.62798 | -126.26530 | 39195 ft | 485 kts | 36° |
| 2026-04-25 18:10 | 71.68027 | -126.13144 | 39274 ft | 485 kts | 36° |
| 2026-04-25 18:11 | 71.73226 | -125.99739 | 39359 ft | 485 kts | 36° |
| 2026-04-25 18:11 | 71.78436 | -125.86207 | 39420 ft | 485 kts | 36° |
| 2026-04-25 18:12 | 71.83688 | -125.72463 | 39453 ft | 486 kts | 36° |
| 2026-04-25 18:12 | 71.88908 | -125.58703 | 39456 ft | 488 kts | 36° |
| 2026-04-25 18:13 | 71.94130 | -125.44831 | 39458 ft | 489 kts | 36° |
| 2026-04-25 18:13 | 71.99173 | -125.30095 | 39446 ft | 495 kts | 46° |
| 2026-04-25 18:14 | 72.05250 | -125.02794 | 39423 ft | 500 kts | 52° |
| 2026-04-25 18:14 | 72.09156 | -124.84243 | 39442 ft | 501 kts | 53° |
| 2026-04-25 18:15 | 72.13062 | -124.65537 | 39454 ft | 500 kts | 53° |
| 2026-04-25 18:15 | 72.16946 | -124.46772 | 39439 ft | 502 kts | 53° |
| 2026-04-25 18:16 | 72.20808 | -124.27943 | 39449 ft | 502 kts | 53° |
| 2026-04-25 18:17 | 72.26585 | -123.99478 | 39463 ft | 502 kts | 53° |
| 2026-04-25 18:17 | 72.30416 | -123.80386 | 39481 ft | 502 kts | 54° |
| 2026-04-25 18:18 | 72.34207 | -123.61324 | 39492 ft | 502 kts | 53° |
| 2026-04-25 18:18 | 72.38020 | -123.41976 | 39485 ft | 502 kts | 53° |
| 2026-04-25 18:19 | 72.41787 | -123.22694 | 39505 ft | 502 kts | 54° |
| 2026-04-25 18:19 | 72.45532 | -123.03344 | 39513 ft | 502 kts | 54° |
| 2026-04-25 18:20 | 72.49204 | -122.84202 | 39509 ft | 502 kts | 54° |
| 2026-04-25 18:20 | 72.52931 | -122.64588 | 39497 ft | 502 kts | 54° |
| 2026-04-25 18:21 | 72.56646 | -122.44857 | 39485 ft | 501 kts | 54° |
| 2026-04-25 18:21 | 72.60292 | -122.25314 | 39503 ft | 501 kts | 56° |
| 2026-04-25 18:22 | 72.63944 | -122.05551 | 39511 ft | 501 kts | 56° |
| 2026-04-25 18:22 | 72.67590 | -121.85641 | 39528 ft | 501 kts | 56° |
| 2026-04-25 18:23 | 72.71197 | -121.65749 | 39535 ft | 501 kts | 56° |
| 2026-04-25 18:23 | 72.74802 | -121.45686 | 39531 ft | 501 kts | 56° |
| 2026-04-25 18:24 | 72.78348 | -121.25757 | 39551 ft | 501 kts | 56° |
| 2026-04-25 18:24 | 72.81920 | -121.05492 | 39557 ft | 501 kts | 56° |
| 2026-04-25 18:25 | 72.85465 | -120.85180 | 39547 ft | 501 kts | 57° |
| 2026-04-25 18:25 | 72.88967 | -120.64920 | 39535 ft | 502 kts | 57° |
| 2026-04-25 18:26 | 72.92471 | -120.44455 | 39537 ft | 501 kts | 56° |
| 2026-04-25 18:26 | 72.95933 | -120.24030 | 39547 ft | 501 kts | 57° |
| 2026-04-25 18:27 | 72.99383 | -120.03462 | 39559 ft | 501 kts | 58° |
| 2026-04-25 18:27 | 73.02525 | -119.82057 | 39562 ft | 503 kts | 62° |
| 2026-04-25 18:28 | 73.05505 | -119.60549 | 39593 ft | 502 kts | 62° |
| 2026-04-25 18:28 | 73.08461 | -119.39009 | 39592 ft | 502 kts | 62° |
| 2026-04-25 18:29 | 73.12856 | -119.06570 | 39585 ft | 502 kts | 62° |
| 2026-04-25 18:30 | 73.18665 | -118.62863 | 39606 ft | 502 kts | 62° |
| 2026-04-25 18:30 | 73.21528 | -118.40967 | 39621 ft | 502 kts | 62° |
| 2026-04-25 18:31 | 73.24380 | -118.18901 | 39625 ft | 503 kts | 63° |
| 2026-04-25 18:31 | 73.27219 | -117.96687 | 39603 ft | 503 kts | 63° |
| 2026-04-25 18:32 | 73.30020 | -117.74512 | 39601 ft | 503 kts | 63° |
| 2026-04-25 18:32 | 73.32803 | -117.52219 | 39626 ft | 502 kts | 63° |
| 2026-04-25 18:33 | 73.35527 | -117.30152 | 39644 ft | 502 kts | 64° |
| 2026-04-25 18:33 | 73.38265 | -117.07697 | 39661 ft | 502 kts | 64° |
| 2026-04-25 18:34 | 73.40962 | -116.85319 | 39635 ft | 503 kts | 64° |
| 2026-04-25 18:34 | 73.43655 | -116.62699 | 39644 ft | 502 kts | 64° |
| 2026-04-25 18:35 | 73.46316 | -116.40082 | 39650 ft | 502 kts | 64° |
| 2026-04-25 18:35 | 73.48933 | -116.17547 | 39657 ft | 502 kts | 65° |
| 2026-04-25 18:36 | 73.51547 | -115.94781 | 39666 ft | 502 kts | 65° |
| 2026-04-25 18:36 | 73.54132 | -115.71960 | 39664 ft | 503 kts | 65° |
| 2026-04-25 18:37 | 73.56678 | -115.49210 | 39699 ft | 502 kts | 65° |
| 2026-04-25 18:37 | 73.59199 | -115.26391 | 39723 ft | 502 kts | 66° |
| 2026-04-25 18:38 | 73.61720 | -115.03279 | 39737 ft | 502 kts | 66° |
| 2026-04-25 18:38 | 73.64204 | -114.80209 | 39731 ft | 503 kts | 66° |
| 2026-04-25 18:39 | 73.66661 | -114.57093 | 39747 ft | 502 kts | 66° |
| 2026-04-25 18:39 | 73.69097 | -114.33868 | 39743 ft | 502 kts | 67° |
| 2026-04-25 18:40 | 73.71501 | -114.10632 | 39742 ft | 503 kts | 67° |
| 2026-04-25 18:40 | 73.73881 | -113.87331 | 39751 ft | 503 kts | 67° |
| 2026-04-25 18:41 | 73.76234 | -113.63962 | 39749 ft | 503 kts | 67° |
| 2026-04-25 18:41 | 73.78579 | -113.40359 | 39749 ft | 503 kts | 67° |
| 2026-04-25 18:42 | 73.80499 | -113.20795 | 39752 ft | 503 kts | 68° |
| 2026-04-25 18:42 | 73.83163 | -112.93257 | 39750 ft | 503 kts | 68° |
| 2026-04-25 18:43 | 73.85416 | -112.69591 | 39752 ft | 503 kts | 68° |
| 2026-04-25 18:43 | 73.87644 | -112.45865 | 39752 ft | 504 kts | 68° |
| 2026-04-25 18:44 | 73.89860 | -112.21916 | 39753 ft | 504 kts | 69° |
| 2026-04-25 18:44 | 73.92042 | -111.97965 | 39754 ft | 504 kts | 69° |
| 2026-04-25 18:45 | 73.94197 | -111.73972 | 39762 ft | 504 kts | 69° |
| 2026-04-25 18:45 | 73.96330 | -111.49852 | 39773 ft | 504 kts | 69° |
| 2026-04-25 18:46 | 73.98424 | -111.25819 | 39781 ft | 504 kts | 70° |
| 2026-04-25 18:46 | 74.00494 | -111.01684 | 39800 ft | 503 kts | 70° |
| 2026-04-25 18:47 | 74.02544 | -110.77407 | 39797 ft | 504 kts | 70° |
| 2026-04-25 18:47 | 74.04554 | -110.53219 | 39796 ft | 504 kts | 70° |
| 2026-04-25 18:48 | 74.06537 | -110.28978 | 39797 ft | 504 kts | 71° |
| 2026-04-25 18:48 | 74.08507 | -110.04502 | 39797 ft | 504 kts | 71° |
| 2026-04-25 18:49 | 74.10438 | -109.80101 | 39797 ft | 504 kts | 71° |
| 2026-04-25 18:49 | 74.12350 | -109.55537 | 39794 ft | 504 kts | 71° |
| 2026-04-25 18:50 | 74.14193 | -109.31461 | 39798 ft | 504 kts | 72° |
| 2026-04-25 18:50 | 74.16044 | -109.06873 | 39798 ft | 504 kts | 72° |
| 2026-04-25 18:51 | 74.17571 | -108.86245 | 39801 ft | 504 kts | 72° |
| 2026-04-25 18:51 | 74.19669 | -108.57421 | 39809 ft | 504 kts | 72° |
| 2026-04-25 18:52 | 74.21438 | -108.32636 | 39812 ft | 504 kts | 73° |
| 2026-04-25 18:52 | 74.23190 | -108.07630 | 39821 ft | 504 kts | 73° |
| 2026-04-25 18:53 | 74.24897 | -107.82819 | 39813 ft | 504 kts | 73° |
| 2026-04-25 18:53 | 74.26578 | -107.57914 | 39822 ft | 504 kts | 73° |
| 2026-04-25 18:54 | 74.29050 | -107.20434 | 39823 ft | 504 kts | 74° |
| 2026-04-25 18:55 | 74.30664 | -106.95338 | 39823 ft | 504 kts | 74° |
| 2026-04-25 18:55 | 74.32250 | -106.70182 | 39827 ft | 504 kts | 74° |
| 2026-04-25 18:56 | 74.33813 | -106.44887 | 39823 ft | 504 kts | 74° |
| 2026-04-25 18:56 | 74.35341 | -106.19662 | 39824 ft | 504 kts | 75° |
| 2026-04-25 18:57 | 74.36834 | -105.94465 | 39825 ft | 504 kts | 75° |
| 2026-04-25 18:57 | 74.38311 | -105.69013 | 39833 ft | 504 kts | 75° |
| 2026-04-25 18:58 | 74.39751 | -105.43646 | 39836 ft | 505 kts | 75° |
| 2026-04-25 18:58 | 74.41867 | -105.05300 | 39844 ft | 505 kts | 76° |
| 2026-04-25 18:59 | 74.44583 | -104.54057 | 39851 ft | 506 kts | 76° |
| 2026-04-25 19:00 | 74.46539 | -104.15562 | 39853 ft | 506 kts | 77° |
| 2026-04-25 19:01 | 74.48439 | -103.76763 | 39856 ft | 506 kts | 77° |
| 2026-04-25 19:01 | 74.49657 | -103.51084 | 39854 ft | 506 kts | 77° |
| 2026-04-25 19:02 | 74.51443 | -103.12155 | 39858 ft | 506 kts | 78° |
| 2026-04-25 19:03 | 74.52969 | -102.77583 | 39863 ft | 507 kts | 78° |
| 2026-04-25 19:03 | 74.54259 | -102.47303 | 39863 ft | 506 kts | 78° |
| 2026-04-25 19:04 | 74.55862 | -102.08176 | 39856 ft | 507 kts | 79° |
| 2026-04-25 19:05 | 74.57890 | -101.55914 | 39865 ft | 507 kts | 79° |
| 2026-04-25 19:06 | 74.58855 | -101.29855 | 39862 ft | 507 kts | 80° |
| 2026-04-25 19:06 | 74.60258 | -100.90299 | 39858 ft | 507 kts | 79° |
| 2026-04-25 19:07 | 74.61581 | -100.50996 | 39862 ft | 507 kts | 80° |
| 2026-04-25 19:08 | 74.62838 | -100.11523 | 39864 ft | 508 kts | 81° |
| 2026-04-25 19:09 | 74.64281 | -99.63116 | 39867 ft | 508 kts | 81° |
| 2026-04-25 19:10 | 74.65501 | -99.19133 | 39865 ft | 509 kts | 82° |
| 2026-04-25 19:10 | 74.66193 | -98.92625 | 39866 ft | 509 kts | 82° |
| 2026-04-25 19:11 | 74.66854 | -98.66100 | 39865 ft | 509 kts | 82° |
| 2026-04-25 19:11 | 74.67484 | -98.39549 | 39863 ft | 509 kts | 82° |
| 2026-04-25 19:12 | 74.68080 | -98.13023 | 39862 ft | 510 kts | 83° |
| 2026-04-25 19:12 | 74.68652 | -97.86215 | 39863 ft | 510 kts | 83° |
| 2026-04-25 19:13 | 74.69187 | -97.59579 | 39863 ft | 510 kts | 83° |
| 2026-04-25 19:13 | 74.69689 | -97.33025 | 39862 ft | 509 kts | 84° |
| 2026-04-25 19:14 | 74.70159 | -97.06488 | 39857 ft | 510 kts | 84° |
| 2026-04-25 19:14 | 74.70600 | -96.79795 | 39869 ft | 509 kts | 84° |
| 2026-04-25 19:15 | 74.71012 | -96.52895 | 39878 ft | 509 kts | 84° |
| 2026-04-25 19:15 | 74.71387 | -96.26381 | 39878 ft | 510 kts | 84° |
| 2026-04-25 19:16 | 74.71734 | -95.99593 | 39880 ft | 510 kts | 85° |
| 2026-04-25 19:16 | 74.72047 | -95.72855 | 39891 ft | 510 kts | 85° |
| 2026-04-25 19:17 | 74.72331 | -95.45997 | 39893 ft | 510 kts | 84° |
| 2026-04-25 19:17 | 74.72582 | -95.19151 | 39890 ft | 510 kts | 86° |
| 2026-04-25 19:18 | 74.72723 | -94.92339 | 39868 ft | 512 kts | 90° |
| 2026-04-25 19:18 | 74.71860 | -94.65466 | 39817 ft | 514 kts | 95° |
| 2026-04-25 19:19 | 74.70875 | -94.38630 | 39833 ft | 514 kts | 95° |
| 2026-04-25 19:19 | 74.69872 | -94.12179 | 39816 ft | 515 kts | 96° |
| 2026-04-25 19:20 | 74.68819 | -93.85302 | 39808 ft | 515 kts | 96° |
| 2026-04-25 19:20 | 74.67739 | -93.58571 | 39846 ft | 515 kts | 96° |
| 2026-04-25 19:21 | 74.66634 | -93.32037 | 39864 ft | 515 kts | 97° |
| 2026-04-25 19:21 | 74.64909 | -92.92075 | 39867 ft | 516 kts | 97° |
| 2026-04-25 19:22 | 74.63721 | -92.65504 | 39865 ft | 516 kts | 97° |
| 2026-04-25 19:23 | 74.61884 | -92.25815 | 39870 ft | 516 kts | 98° |
| 2026-04-25 19:23 | 74.59965 | -91.85993 | 39855 ft | 516 kts | 98° |
| 2026-04-25 19:24 | 74.58653 | -91.59624 | 39846 ft | 515 kts | 98° |
| 2026-04-25 19:25 | 74.55932 | -91.06945 | 39849 ft | 515 kts | 99° |
| 2026-04-25 19:25 | 74.54527 | -90.80700 | 39834 ft | 516 kts | 99° |
| 2026-04-25 19:26 | 74.53079 | -90.54303 | 39844 ft | 516 kts | 99° |
| 2026-04-25 19:26 | 74.51613 | -90.28169 | 39849 ft | 517 kts | 101° |
| 2026-04-25 19:27 | 74.50349 | -90.06290 | 39854 ft | 517 kts | 102° |
| 2026-04-25 19:27 | 74.47481 | -89.76951 | 39855 ft | 520 kts | 111° |
| 2026-04-25 19:28 | 74.44715 | -89.51977 | 39853 ft | 520 kts | 111° |
| 2026-04-25 19:28 | 74.41953 | -89.27364 | 39853 ft | 520 kts | 112° |
| 2026-04-25 19:29 | 74.39147 | -89.02686 | 39849 ft | 520 kts | 112° |
| 2026-04-25 19:29 | 74.36314 | -88.78098 | 39849 ft | 521 kts | 112° |
| 2026-04-25 19:30 | 74.33429 | -88.53385 | 39852 ft | 521 kts | 112° |
| 2026-04-25 19:30 | 74.30547 | -88.29015 | 39819 ft | 521 kts | 113° |
| 2026-04-25 19:31 | 74.27618 | -88.04565 | 39839 ft | 521 kts | 113° |
| 2026-04-25 19:31 | 74.24670 | -87.80273 | 39854 ft | 521 kts | 113° |
| 2026-04-25 19:32 | 74.21688 | -87.56020 | 39846 ft | 522 kts | 113° |
| 2026-04-25 19:32 | 74.19159 | -87.35681 | 39840 ft | 522 kts | 113° |
| 2026-04-25 19:33 | 74.15633 | -87.07678 | 39836 ft | 523 kts | 114° |
| 2026-04-25 19:33 | 74.12574 | -86.83707 | 39829 ft | 523 kts | 114° |
| 2026-04-25 19:34 | 74.09470 | -86.59684 | 39828 ft | 523 kts | 114° |
| 2026-04-25 19:34 | 74.06346 | -86.35807 | 39826 ft | 523 kts | 114° |
| 2026-04-25 19:35 | 74.03221 | -86.12205 | 39817 ft | 523 kts | 115° |
| 2026-04-25 19:35 | 74.00040 | -85.88468 | 39819 ft | 522 kts | 115° |
| 2026-04-25 19:36 | 73.96858 | -85.65005 | 39792 ft | 523 kts | 115° |
| 2026-04-25 19:36 | 73.93609 | -85.41331 | 39776 ft | 523 kts | 115° |
| 2026-04-25 19:37 | 73.90383 | -85.18103 | 39769 ft | 523 kts | 116° |
| 2026-04-25 19:37 | 73.87142 | -84.95037 | 39731 ft | 523 kts | 116° |
| 2026-04-25 19:38 | 73.83842 | -84.71814 | 39817 ft | 522 kts | 116° |
| 2026-04-25 19:38 | 73.80532 | -84.48792 | 39804 ft | 524 kts | 116° |
| 2026-04-25 19:39 | 73.77175 | -84.25709 | 39810 ft | 524 kts | 117° |
| 2026-04-25 19:39 | 73.73786 | -84.02671 | 39816 ft | 525 kts | 117° |
| 2026-04-25 19:40 | 73.70377 | -83.79758 | 39792 ft | 526 kts | 117° |
| 2026-04-25 19:40 | 73.66933 | -83.56874 | 39771 ft | 525 kts | 117° |
| 2026-04-25 19:41 | 73.63475 | -83.34155 | 39710 ft | 526 kts | 118° |
| 2026-04-25 19:41 | 73.60564 | -83.15216 | 39598 ft | 526 kts | 118° |
| 2026-04-25 19:42 | 73.56473 | -82.88905 | 39609 ft | 526 kts | 118° |
| 2026-04-25 19:42 | 73.52917 | -82.66292 | 39653 ft | 526 kts | 118° |
| 2026-04-25 19:43 | 73.49342 | -82.43816 | 39605 ft | 529 kts | 118° |
| 2026-04-25 19:43 | 73.45750 | -82.21474 | 39500 ft | 529 kts | 120° |
| 2026-04-25 19:44 | 73.42088 | -81.98940 | 39504 ft | 529 kts | 120° |
| 2026-04-25 19:44 | 73.38428 | -81.76661 | 39493 ft | 529 kts | 120° |
| 2026-04-25 19:45 | 73.34724 | -81.54361 | 39661 ft | 527 kts | 120° |
| 2026-04-25 19:45 | 73.31073 | -81.32608 | 39691 ft | 529 kts | 120° |
| 2026-04-25 19:46 | 73.27332 | -81.10555 | 39751 ft | 529 kts | 121° |
| 2026-04-25 19:46 | 73.23593 | -80.88744 | 39794 ft | 530 kts | 120° |
| 2026-04-25 19:47 | 73.19791 | -80.66792 | 39788 ft | 530 kts | 121° |
| 2026-04-25 19:47 | 73.15996 | -80.45113 | 39784 ft | 530 kts | 121° |
| 2026-04-25 19:48 | 73.12167 | -80.23467 | 39791 ft | 530 kts | 122° |
| 2026-04-25 19:48 | 73.08330 | -80.01991 | 39759 ft | 530 kts | 122° |
| 2026-04-25 19:49 | 73.05106 | -79.84113 | 39654 ft | 531 kts | 122° |
| 2026-04-25 19:49 | 73.00546 | -79.59095 | 39653 ft | 529 kts | 122° |
| 2026-04-25 19:50 | 72.94682 | -79.27344 | 39627 ft | 531 kts | 123° |
| 2026-04-25 19:51 | 72.90730 | -79.06214 | 39623 ft | 530 kts | 123° |
| 2026-04-25 19:51 | 72.86778 | -78.85294 | 39655 ft | 530 kts | 123° |
| 2026-04-25 19:52 | 72.82770 | -78.64281 | 39695 ft | 530 kts | 123° |
| 2026-04-25 19:52 | 72.78760 | -78.43472 | 39747 ft | 530 kts | 123° |
| 2026-04-25 19:53 | 72.74752 | -78.22875 | 39805 ft | 530 kts | 124° |
| 2026-04-25 19:53 | 72.70670 | -78.02099 | 39778 ft | 532 kts | 124° |
| 2026-04-25 19:54 | 72.66698 | -77.81268 | 39734 ft | 532 kts | 122° |
| 2026-04-25 19:54 | 72.62756 | -77.60319 | 39687 ft | 532 kts | 122° |
| 2026-04-25 19:55 | 72.58798 | -77.39500 | 39655 ft | 532 kts | 122° |
| 2026-04-25 19:55 | 72.54829 | -77.18823 | 39655 ft | 533 kts | 123° |
| 2026-04-25 19:55 | 72.52838 | -77.08529 | 39509 ft | 535 kts | 123° |
| 2026-04-25 19:56 | 72.50793 | -76.98004 | 39361 ft | 536 kts | 123° |
| 2026-04-25 19:56 | 72.46768 | -76.77451 | 39409 ft | 532 kts | 123° |
| 2026-04-25 19:57 | 72.42728 | -76.57010 | 39329 ft | 535 kts | 123° |
| 2026-04-25 19:57 | 72.38641 | -76.36539 | 39361 ft | 533 kts | 123° |
| 2026-04-25 19:58 | 72.34560 | -76.16290 | 39428 ft | 535 kts | 125° |
| 2026-04-25 19:58 | 72.30418 | -75.95936 | 39282 ft | 537 kts | 125° |
| 2026-04-25 19:59 | 72.26284 | -75.75811 | 39380 ft | 535 kts | 125° |
| 2026-04-25 19:59 | 72.22112 | -75.55692 | 39385 ft | 536 kts | 125° |
| 2026-04-25 20:00 | 72.17924 | -75.35687 | 39527 ft | 534 kts | 125° |
| 2026-04-25 20:00 | 72.13709 | -75.15743 | 39573 ft | 536 kts | 126° |
| 2026-04-25 20:01 | 72.07355 | -74.86023 | 39484 ft | 535 kts | 126° |
| 2026-04-25 20:01 | 72.03087 | -74.66286 | 39553 ft | 535 kts | 126° |
| 2026-04-25 20:02 | 71.98814 | -74.46712 | 39582 ft | 536 kts | 126° |
| 2026-04-25 20:02 | 71.94554 | -74.27381 | 39701 ft | 535 kts | 127° |
| 2026-04-25 20:03 | 71.90224 | -74.07906 | 39710 ft | 536 kts | 127° |
| 2026-04-25 20:03 | 71.85980 | -73.88987 | 39690 ft | 537 kts | 127° |
| 2026-04-25 20:04 | 71.81595 | -73.69616 | 39621 ft | 537 kts | 127° |
| 2026-04-25 20:04 | 71.77237 | -73.50538 | 39716 ft | 535 kts | 127° |
| 2026-04-25 20:05 | 71.72871 | -73.31599 | 39710 ft | 536 kts | 128° |
| 2026-04-25 20:05 | 71.68429 | -73.12492 | 39670 ft | 536 kts | 128° |
| 2026-04-25 20:06 | 71.64002 | -72.93625 | 39670 ft | 536 kts | 128° |
| 2026-04-25 20:06 | 71.59556 | -72.74841 | 39622 ft | 537 kts | 128° |
| 2026-04-25 20:07 | 71.55067 | -72.56048 | 39634 ft | 536 kts | 128° |
| 2026-04-25 20:07 | 71.50612 | -72.37550 | 39629 ft | 537 kts | 128° |
| 2026-04-25 20:08 | 71.46121 | -72.19070 | 39601 ft | 537 kts | 129° |
| 2026-04-25 20:08 | 71.41586 | -72.00571 | 39599 ft | 537 kts | 129° |
| 2026-04-25 20:09 | 71.37047 | -71.82209 | 39538 ft | 537 kts | 129° |
| 2026-04-25 20:09 | 71.32458 | -71.63811 | 39518 ft | 536 kts | 130° |
| 2026-04-25 20:10 | 71.28056 | -71.46307 | 39603 ft | 536 kts | 130° |
| 2026-04-25 20:10 | 71.23459 | -71.28182 | 39595 ft | 537 kts | 131° |
| 2026-04-25 20:11 | 71.18858 | -71.10197 | 39668 ft | 536 kts | 130° |
| 2026-04-25 20:11 | 71.14179 | -70.92059 | 39665 ft | 538 kts | 130° |
| 2026-04-25 20:12 | 71.09507 | -70.74101 | 39682 ft | 538 kts | 130° |
| 2026-04-25 20:12 | 71.05591 | -70.59164 | 39691 ft | 538 kts | 130° |
| 2026-04-25 20:13 | 71.00092 | -70.38370 | 39711 ft | 539 kts | 130° |
| 2026-04-25 20:13 | 70.95364 | -70.20648 | 39681 ft | 540 kts | 132° |
| 2026-04-25 20:14 | 70.90619 | -70.03014 | 39661 ft | 539 kts | 132° |
| 2026-04-25 20:14 | 70.85930 | -69.85733 | 39667 ft | 539 kts | 132° |
| 2026-04-25 20:15 | 70.81149 | -69.68254 | 39716 ft | 539 kts | 132° |
| 2026-04-25 20:15 | 70.76348 | -69.50848 | 39674 ft | 540 kts | 131° |
| 2026-04-25 20:16 | 70.71584 | -69.33712 | 39676 ft | 540 kts | 133° |
| 2026-04-25 20:16 | 70.66724 | -69.16375 | 39655 ft | 539 kts | 133° |
| 2026-04-25 20:17 | 70.61878 | -68.99229 | 39669 ft | 539 kts | 133° |
| 2026-04-25 20:17 | 70.57000 | -68.82107 | 39674 ft | 539 kts | 133° |
| 2026-04-25 20:18 | 70.52129 | -68.65150 | 39660 ft | 539 kts | 133° |
| 2026-04-25 20:18 | 70.47196 | -68.48325 | 39696 ft | 539 kts | 134° |
| 2026-04-25 20:19 | 70.42122 | -68.31860 | 39703 ft | 539 kts | 135° |
| 2026-04-25 20:19 | 70.37043 | -68.15507 | 39690 ft | 539 kts | 136° |
| 2026-04-25 20:20 | 70.31972 | -67.99304 | 39675 ft | 539 kts | 135° |
| 2026-04-25 20:20 | 70.26852 | -67.83073 | 39686 ft | 539 kts | 136° |
| 2026-04-25 20:21 | 70.24307 | -67.75050 | 39807 ft | 537 kts | 136° |
| 2026-04-25 20:21 | 70.21757 | -67.67041 | 40070 ft | 533 kts | 136° |
| 2026-04-25 20:21 | 70.19208 | -67.59065 | 40330 ft | 528 kts | 135° |
| 2026-04-25 20:21 | 70.16688 | -67.51211 | 40548 ft | 525 kts | 136° |
| 2026-04-25 20:22 | 70.14188 | -67.43452 | 40677 ft | 523 kts | 136° |
| 2026-04-25 20:22 | 70.12511 | -67.38262 | 40748 ft | 523 kts | 136° |
| 2026-04-25 20:22 | 70.06657 | -67.20253 | 40860 ft | 523 kts | 136° |
| 2026-04-25 20:23 | 70.01607 | -67.04839 | 40963 ft | 523 kts | 137° |
| 2026-04-25 20:23 | 69.96410 | -66.89864 | 41057 ft | 522 kts | 139° |
| 2026-04-25 20:24 | 69.91176 | -66.75314 | 41180 ft | 522 kts | 139° |
| 2026-04-25 20:24 | 69.86023 | -66.61087 | 41287 ft | 521 kts | 139° |
| 2026-04-25 20:25 | 69.80772 | -66.46689 | 41373 ft | 521 kts | 139° |
| 2026-04-25 20:25 | 69.75485 | -66.32295 | 41485 ft | 520 kts | 140° |
| 2026-04-25 20:26 | 69.70219 | -66.18059 | 41584 ft | 519 kts | 140° |
| 2026-04-25 20:26 | 69.64985 | -66.04010 | 41647 ft | 519 kts | 140° |
| 2026-04-25 20:27 | 69.59657 | -65.89810 | 41648 ft | 521 kts | 140° |
| 2026-04-25 20:27 | 69.54328 | -65.75708 | 41644 ft | 523 kts | 140° |
| 2026-04-25 20:28 | 69.48989 | -65.61680 | 41628 ft | 525 kts | 140° |
| 2026-04-25 20:28 | 69.43578 | -65.47562 | 41643 ft | 527 kts | 140° |
| 2026-04-25 20:29 | 69.38123 | -65.33433 | 41648 ft | 530 kts | 141° |
| 2026-04-25 20:29 | 69.32670 | -65.19406 | 41635 ft | 531 kts | 141° |
| 2026-04-25 20:30 | 69.27158 | -65.05330 | 41633 ft | 532 kts | 141° |
| 2026-04-25 20:30 | 69.21651 | -64.91365 | 41631 ft | 531 kts | 141° |
| 2026-04-25 20:31 | 69.16170 | -64.77567 | 41621 ft | 531 kts | 141° |
| 2026-04-25 20:31 | 69.10652 | -64.63773 | 41623 ft | 530 kts | 141° |
| 2026-04-25 20:32 | 69.05158 | -64.50133 | 41620 ft | 530 kts | 141° |
| 2026-04-25 20:32 | 68.99662 | -64.36584 | 41621 ft | 530 kts | 141° |
| 2026-04-25 20:33 | 68.94112 | -64.23000 | 41608 ft | 529 kts | 142° |
| 2026-04-25 20:33 | 68.89539 | -64.11873 | 41606 ft | 529 kts | 142° |
| 2026-04-25 20:34 | 68.83061 | -63.96223 | 41620 ft | 528 kts | 142° |
| 2026-04-25 20:34 | 68.77514 | -63.82924 | 41617 ft | 528 kts | 142° |
| 2026-04-25 20:35 | 68.71950 | -63.69675 | 41601 ft | 528 kts | 142° |
| 2026-04-25 20:35 | 68.66366 | -63.56466 | 41597 ft | 529 kts | 142° |
| 2026-04-25 20:36 | 68.60799 | -63.43389 | 41615 ft | 529 kts | 142° |
| 2026-04-25 20:36 | 68.55199 | -63.30323 | 41588 ft | 529 kts | 143° |
| 2026-04-25 20:37 | 68.49586 | -63.17313 | 41593 ft | 529 kts | 143° |
| 2026-04-25 20:37 | 68.43974 | -63.04396 | 41590 ft | 530 kts | 143° |
| 2026-04-25 20:38 | 68.38338 | -62.91510 | 41576 ft | 531 kts | 143° |
| 2026-04-25 20:38 | 68.32652 | -62.78595 | 41563 ft | 531 kts | 143° |
| 2026-04-25 20:39 | 68.27014 | -62.65878 | 41593 ft | 530 kts | 143° |
| 2026-04-25 20:39 | 68.22269 | -62.55241 | 41583 ft | 530 kts | 143° |
| 2026-04-25 20:40 | 68.15642 | -62.40479 | 41592 ft | 530 kts | 143° |
| 2026-04-25 20:40 | 68.09956 | -62.27907 | 41567 ft | 530 kts | 144° |
| 2026-04-25 20:41 | 68.04219 | -62.15306 | 41573 ft | 530 kts | 144° |
| 2026-04-25 20:41 | 67.98504 | -62.02836 | 41564 ft | 531 kts | 144° |
| 2026-04-25 20:42 | 67.92788 | -61.90445 | 41558 ft | 530 kts | 144° |
| 2026-04-25 20:42 | 67.87091 | -61.78175 | 41562 ft | 530 kts | 144° |
| 2026-04-25 20:43 | 67.81390 | -61.65978 | 41567 ft | 530 kts | 144° |
| 2026-04-25 20:43 | 67.75639 | -61.53752 | 41556 ft | 531 kts | 144° |
| 2026-04-25 20:44 | 67.69844 | -61.41513 | 41544 ft | 531 kts | 144° |
| 2026-04-25 20:44 | 67.64105 | -61.29469 | 41557 ft | 531 kts | 145° |
| 2026-04-25 20:45 | 67.58290 | -61.17345 | 41556 ft | 531 kts | 145° |
| 2026-04-25 20:45 | 67.52502 | -61.05353 | 41556 ft | 530 kts | 145° |
| 2026-04-25 20:46 | 67.46696 | -60.93404 | 41546 ft | 530 kts | 145° |
| 2026-04-25 20:46 | 67.40899 | -60.81546 | 41543 ft | 530 kts | 145° |
| 2026-04-25 20:47 | 67.35100 | -60.69761 | 41542 ft | 530 kts | 145° |
| 2026-04-25 20:47 | 67.29308 | -60.58065 | 41548 ft | 530 kts | 145° |
| 2026-04-25 20:48 | 67.23496 | -60.46402 | 41532 ft | 530 kts | 145° |
| 2026-04-25 20:48 | 67.17688 | -60.34817 | 41535 ft | 529 kts | 146° |
| 2026-04-25 20:49 | 67.11877 | -60.23302 | 41532 ft | 528 kts | 146° |
| 2026-04-25 20:49 | 67.06041 | -60.11808 | 41528 ft | 528 kts | 146° |
| 2026-04-25 20:50 | 67.00255 | -60.00160 | 41516 ft | 530 kts | 141° |
| 2026-04-25 20:50 | 66.95145 | -59.86361 | 41513 ft | 533 kts | 135° |
| 2026-04-25 20:51 | 66.90157 | -59.72414 | 41498 ft | 534 kts | 134° |
| 2026-04-25 20:51 | 66.85111 | -59.58401 | 41524 ft | 532 kts | 134° |
| 2026-04-25 20:52 | 66.80965 | -59.46960 | 41501 ft | 533 kts | 134° |
| 2026-04-25 20:52 | 66.75082 | -59.30829 | 41542 ft | 533 kts | 136° |
| 2026-04-25 20:53 | 66.70018 | -59.17043 | 41526 ft | 532 kts | 135° |
| 2026-04-25 20:53 | 66.64985 | -59.03432 | 41512 ft | 532 kts | 135° |
| 2026-04-25 20:54 | 66.59918 | -58.89817 | 41509 ft | 533 kts | 135° |
| 2026-04-25 20:54 | 66.54869 | -58.76334 | 41520 ft | 532 kts | 135° |
| 2026-04-25 20:55 | 66.49806 | -58.62900 | 41515 ft | 531 kts | 135° |
| 2026-04-25 20:55 | 66.44688 | -58.49407 | 41505 ft | 531 kts | 135° |
| 2026-04-25 20:56 | 66.39609 | -58.36103 | 41490 ft | 531 kts | 135° |
| 2026-04-25 20:56 | 66.34499 | -58.22800 | 41464 ft | 532 kts | 136° |
| 2026-04-25 20:57 | 66.29364 | -58.09517 | 41485 ft | 531 kts | 136° |
| 2026-04-25 20:57 | 66.24256 | -57.96387 | 41488 ft | 532 kts | 136° |
| 2026-04-25 20:58 | 66.19134 | -57.83301 | 41492 ft | 531 kts | 136° |
| 2026-04-25 20:58 | 66.13974 | -57.70201 | 41510 ft | 531 kts | 136° |
| 2026-04-25 20:59 | 66.08813 | -57.57181 | 41467 ft | 533 kts | 136° |
| 2026-04-25 20:59 | 66.03650 | -57.44234 | 41478 ft | 532 kts | 136° |
| 2026-04-25 21:00 | 65.99307 | -57.33405 | 41493 ft | 531 kts | 137° |
| 2026-04-25 21:01 | 65.90642 | -57.11966 | 41483 ft | 531 kts | 137° |
| 2026-04-25 21:01 | 65.85416 | -56.99140 | 41477 ft | 531 kts | 137° |
| 2026-04-25 21:02 | 65.80204 | -56.86425 | 41487 ft | 531 kts | 137° |
| 2026-04-25 21:02 | 65.74989 | -56.73782 | 41466 ft | 531 kts | 137° |
| 2026-04-25 21:03 | 65.69769 | -56.61199 | 41487 ft | 531 kts | 137° |
| 2026-04-25 21:03 | 65.64516 | -56.48618 | 41500 ft | 530 kts | 137° |
| 2026-04-25 21:04 | 65.59248 | -56.36072 | 41475 ft | 530 kts | 137° |
| 2026-04-25 21:04 | 65.53999 | -56.23648 | 41478 ft | 531 kts | 138° |
| 2026-04-25 21:05 | 65.48737 | -56.11266 | 41466 ft | 531 kts | 138° |
| 2026-04-25 21:05 | 65.43437 | -55.98871 | 41471 ft | 530 kts | 138° |
| 2026-04-25 21:06 | 65.38157 | -55.86593 | 41474 ft | 530 kts | 138° |
| 2026-04-25 21:06 | 65.32838 | -55.74298 | 41486 ft | 531 kts | 138° |
| 2026-04-25 21:07 | 65.27522 | -55.62085 | 41486 ft | 531 kts | 138° |
| 2026-04-25 21:07 | 65.22208 | -55.49947 | 41494 ft | 530 kts | 138° |
| 2026-04-25 21:08 | 65.16843 | -55.37763 | 40885 ft | 536 kts | 138° |
| 2026-04-25 21:08 | 65.14200 | -55.31786 | 40327 ft | 534 kts | 139° |
| 2026-04-25 21:08 | 65.11503 | -55.25706 | 39611 ft | 534 kts | 139° |
| 2026-04-25 21:08 | 65.08809 | -55.19650 | 38861 ft | 534 kts | 139° |
| 2026-04-25 21:09 | 65.03449 | -55.07650 | 37415 ft | 533 kts | 139° |
| 2026-04-25 21:09 | 65.00801 | -55.01587 | 36835 ft | 532 kts | 134° |
| 2026-04-25 21:09 | 64.98418 | -54.94864 | 36046 ft | 538 kts | 125° |
| 2026-04-25 21:10 | 64.96200 | -54.87645 | 35200 ft | 550 kts | 123° |
| 2026-04-25 21:10 | 64.93963 | -54.80372 | 34470 ft | 552 kts | 122° |
| 2026-04-25 21:10 | 64.91710 | -54.73076 | 33730 ft | 558 kts | 123° |
| 2026-04-25 21:10 | 64.89404 | -54.65639 | 33026 ft | 560 kts | 123° |
| 2026-04-25 21:11 | 64.87133 | -54.58340 | 32278 ft | 556 kts | 124° |
| 2026-04-25 21:11 | 64.84855 | -54.51044 | 31564 ft | 550 kts | 124° |
| 2026-04-25 21:11 | 64.82587 | -54.43802 | 30834 ft | 543 kts | 125° |
| 2026-04-25 21:11 | 64.80378 | -54.36773 | 30110 ft | 538 kts | 126° |
| 2026-04-25 21:12 | 64.78204 | -54.29875 | 29431 ft | 532 kts | 127° |
| 2026-04-25 21:12 | 64.76002 | -54.22906 | 28721 ft | 526 kts | 127° |
| 2026-04-25 21:12 | 64.73837 | -54.16085 | 28028 ft | 519 kts | 127° |
| 2026-04-25 21:12 | 64.72433 | -54.11667 | 27587 ft | 515 kts | 127° |
| 2026-04-25 21:13 | 64.69600 | -54.02782 | 26673 ft | 506 kts | 127° |
| 2026-04-25 21:13 | 64.67496 | -53.96206 | 25992 ft | 500 kts | 127° |
| 2026-04-25 21:13 | 64.65423 | -53.89747 | 25328 ft | 493 kts | 127° |
| 2026-04-25 21:13 | 64.63397 | -53.83455 | 24713 ft | 487 kts | 127° |
| 2026-04-25 21:14 | 64.61359 | -53.77143 | 24037 ft | 482 kts | 128° |
| 2026-04-25 21:14 | 64.59377 | -53.71021 | 23436 ft | 477 kts | 128° |
| 2026-04-25 21:14 | 64.57379 | -53.64863 | 22801 ft | 471 kts | 128° |
| 2026-04-25 21:14 | 64.55432 | -53.58882 | 22169 ft | 465 kts | 127° |
| 2026-04-25 21:15 | 64.53498 | -53.52954 | 21551 ft | 458 kts | 127° |
| 2026-04-25 21:15 | 64.51565 | -53.47046 | 20955 ft | 450 kts | 127° |
| 2026-04-25 21:15 | 64.49709 | -53.41391 | 20358 ft | 444 kts | 128° |
| 2026-04-25 21:15 | 64.47862 | -53.35775 | 19772 ft | 436 kts | 128° |
| 2026-04-25 21:16 | 64.46038 | -53.30243 | 19220 ft | 429 kts | 128° |
| 2026-04-25 21:16 | 64.44239 | -53.24801 | 18650 ft | 421 kts | 129° |
| 2026-04-25 21:16 | 64.42470 | -53.19461 | 18101 ft | 414 kts | 129° |
| 2026-04-25 21:16 | 64.40741 | -53.14254 | 17542 ft | 407 kts | 128° |
| 2026-04-25 21:17 | 64.39023 | -53.09094 | 17012 ft | 400 kts | 128° |
| 2026-04-25 21:17 | 64.37344 | -53.04063 | 16484 ft | 394 kts | 129° |
| 2026-04-25 21:17 | 64.35674 | -52.99066 | 15966 ft | 392 kts | 128° |
| 2026-04-25 21:17 | 64.34000 | -52.94073 | 15440 ft | 389 kts | 128° |
| 2026-04-25 21:18 | 64.32365 | -52.89207 | 14927 ft | 387 kts | 129° |
| 2026-04-25 21:18 | 64.30715 | -52.84304 | 14420 ft | 383 kts | 128° |
| 2026-04-25 21:18 | 64.29090 | -52.79489 | 13915 ft | 379 kts | 128° |
| 2026-04-25 21:18 | 64.27484 | -52.74737 | 13417 ft | 372 kts | 128° |
| 2026-04-25 21:19 | 64.25913 | -52.70100 | 12924 ft | 365 kts | 128° |
| 2026-04-25 21:19 | 64.24365 | -52.65540 | 12448 ft | 357 kts | 128° |
| 2026-04-25 21:19 | 64.22845 | -52.61074 | 11970 ft | 350 kts | 128° |
| 2026-04-25 21:19 | 64.21371 | -52.56746 | 11526 ft | 344 kts | 127° |
| 2026-04-25 21:20 | 64.19904 | -52.52452 | 11071 ft | 338 kts | 127° |
| 2026-04-25 21:20 | 64.18932 | -52.49611 | 10766 ft | 335 kts | 127° |
| 2026-04-25 21:20 | 64.17047 | -52.44112 | 10192 ft | 327 kts | 127° |
| 2026-04-25 21:20 | 64.15648 | -52.40039 | 9746 ft | 323 kts | 127° |
| 2026-04-25 21:21 | 64.14249 | -52.35975 | 9320 ft | 318 kts | 127° |
| 2026-04-25 21:21 | 64.12907 | -52.32082 | 8905 ft | 313 kts | 128° |
| 2026-04-25 21:21 | 64.11565 | -52.28193 | 8494 ft | 307 kts | 128° |
| 2026-04-25 21:21 | 64.10255 | -52.24405 | 8096 ft | 302 kts | 127° |
| 2026-04-25 21:22 | 64.08954 | -52.20651 | 7685 ft | 297 kts | 127° |
| 2026-04-25 21:22 | 64.07684 | -52.16993 | 7304 ft | 292 kts | 127° |
| 2026-04-25 21:22 | 64.06428 | -52.13382 | 6922 ft | 287 kts | 127° |
| 2026-04-25 21:22 | 64.05212 | -52.09889 | 6496 ft | 284 kts | 127° |
| 2026-04-25 21:23 | 64.03979 | -52.06355 | 6083 ft | 279 kts | 127° |
| 2026-04-25 21:23 | 64.02891 | -52.02748 | 5728 ft | 273 kts | 112° |
| 2026-04-25 21:23 | 64.02290 | -51.98696 | 5339 ft | 270 kts | 104° |
| 2026-04-25 21:23 | 64.01739 | -51.94630 | 4791 ft | 272 kts | 105° |
| 2026-04-25 21:24 | 64.01205 | -51.90515 | 4200 ft | 271 kts | 99° |
| 2026-04-25 21:24 | 64.01105 | -51.86354 | 3906 ft | 252 kts | 80° |
| 2026-04-25 21:24 | 64.01674 | -51.82806 | 3907 ft | 224 kts | 55° |
| 2026-04-25 21:24 | 64.02651 | -51.80357 | 3921 ft | 200 kts | 34° |
| 2026-04-25 21:25 | 64.03834 | -51.78927 | 3657 ft | 189 kts | 20° |
| 2026-04-25 21:25 | 64.05040 | -51.78021 | 3371 ft | 179 kts | 15° |
| 2026-04-25 21:25 | 64.06207 | -51.77242 | 3110 ft | 166 kts | 15° |
| 2026-04-25 21:25 | 64.07260 | -51.76515 | 2867 ft | 152 kts | 16° |
| 2026-04-25 21:26 | 64.08186 | -51.75851 | 2629 ft | 126 kts | 17° |
| 2026-04-25 21:26 | 64.09014 | -51.75251 | 2442 ft | 123 kts | 16° |
| 2026-04-25 21:26 | 64.09809 | -51.74673 | 2251 ft | 119 kts | 16° |
| 2026-04-25 21:26 | 64.10593 | -51.74103 | 2080 ft | 118 kts | 16° |
| 2026-04-25 21:27 | 64.11307 | -51.73586 | 1925 ft | 117 kts | 16° |
| 2026-04-25 21:27 | 64.12078 | -51.73031 | 1743 ft | 116 kts | 16° |
| 2026-04-25 21:27 | 64.12839 | -51.72480 | 1569 ft | 115 kts | 16° |
| 2026-04-25 21:27 | 64.13609 | -51.71923 | 1396 ft | 115 kts | 15° |
| 2026-04-25 21:28 | 64.14383 | -51.71396 | 1204 ft | 114 kts | 15° |
| 2026-04-25 21:28 | 64.15150 | -51.70882 | 1017 ft | 115 kts | 15° |
| 2026-04-25 21:28 | 64.15896 | -51.70300 | 832 ft | 114 kts | 18° |
| 2026-04-25 21:28 | 64.16642 | -51.69691 | 703 ft | 114 kts | 15° |
| 2026-04-25 21:29 | 64.17392 | -51.69179 | 514 ft | 112 kts | 14° |
| 2026-04-25 21:29 | 64.18105 | -51.68644 | 338 ft | 114 kts | 15° |
| 2026-04-25 21:29 | 64.18812 | -51.68133 | 285 ft | 93 kts | 15° |
| 2026-04-25 21:29 | 64.19267 | -51.67803 | 286 ft | 42 kts | 17° |
| 2026-04-25 21:30 | 64.19532 | -51.67617 | 281 ft | 39 kts | 15° |
| 2026-04-25 21:30 | 64.19784 | -51.67428 | 276 ft | 37 kts | 17° |
| 2026-04-25 21:30 | 64.19919 | -51.67331 | 273 ft | 8 kts | 18° |
| 2026-04-25 21:30 | 64.19970 | -51.67294 | 273 ft | 12 kts | 11° |
| 2026-04-25 21:31 | 64.19975 | -51.67272 | 272 ft | 5 kts | 197° |
| 2026-04-25 21:31 | 64.19908 | -51.67324 | 273 ft | 13 kts | 198° |
| 2026-04-25 21:31 | 64.19804 | -51.67408 | 275 ft | 17 kts | 198° |
| 2026-04-25 21:31 | 64.19675 | -51.67508 | 278 ft | 21 kts | 198° |
| 2026-04-25 21:32 | 64.19523 | -51.67617 | 281 ft | 23 kts | 197° |
| 2026-04-25 21:32 | 64.19363 | -51.67732 | 284 ft | 24 kts | 197° |
| 2026-04-25 21:32 | 64.19187 | -51.67857 | 287 ft | 28 kts | 198° |
| 2026-04-25 21:32 | 64.19021 | -51.67971 | 288 ft | 16 kts | 188° |
| 2026-04-25 21:33 | 64.18951 | -51.67952 | 287 ft | 9 kts | 84° |
| 2026-04-25 21:33 | 64.19044 | -51.67851 | 288 ft | 14 kts | 19° |
| 2026-04-25 21:33 | 64.19078 | -51.67690 | 286 ft | 15 kts | 104° |
| 2026-04-25 21:33 | 64.19085 | -51.67521 | 284 ft | 10 kts | 26° |
| 2026-04-25 21:34 | 64.19143 | -51.67455 | 284 ft | 5 kts | 99° |